Time;durP1;ratioP1;P1;durP2;ratioP2;P2;SDS_P1;SDS_P2;PMS_P1;PMS_P2;Temp;Humidity;BMP_temperature;BMP_pressure;BME280_temperature;BME280_humidity;BME280_pressure;Samples;Min_cycle;Max_cycle;Signal;HPM_P1;HPM_P2
2022/02/19 00:00:31;;;;;;;8.32;3.83;;;;;;;;;;5014457;28;20026;-75
2022/02/19 00:02:57;;;;;;;10.10;4.72;;;;;;;;;;5012442;28;20022;-75
2022/02/19 00:05:24;;;;;;;9.50;5.10;;;;;;;;;;5019876;28;20022;-77
2022/02/19 00:07:51;;;;;;;10.90;4.78;;;;;;;;;;5005236;28;20550;-75
2022/02/19 00:10:17;;;;;;;8.95;5.03;;;;;;;;;;4996154;28;20022;-78
2022/02/19 00:12:43;;;;;;;9.05;4.88;;;;;;;;;;5003487;28;20037;-74
2022/02/19 00:15:09;;;;;;;9.32;4.65;;;;;;;;;;5014956;28;20022;-75
2022/02/19 00:17:36;;;;;;;13.85;6.90;;;;;;;;;;5015671;28;20026;-75
2022/02/19 00:20:04;;;;;;;13.13;6.15;;;;;;;;;;5015758;28;20081;-75
2022/02/19 00:22:30;;;;;;;9.70;4.70;;;;;;;;;;5018739;28;20045;-75
2022/02/19 00:24:56;;;;;;;11.00;5.55;;;;;;;;;;5018730;28;20029;-75
2022/02/19 00:27:22;;;;;;;8.65;3.85;;;;;;;;;;5018612;28;20053;-75
2022/02/19 00:29:53;;;;;;;14.65;5.80;;;;;;;;;;5023124;28;20475;-75
2022/02/19 00:32:19;;;;;;;13.02;6.65;;;;;;;;;;5000085;28;20026;-75
2022/02/19 00:34:46;;;;;;;16.95;8.30;;;;;;;;;;5020380;28;20088;-75
2022/02/19 00:37:12;;;;;;;20.73;11.43;;;;;;;;;;5000457;28;20036;-76
2022/02/19 00:39:38;;;;;;;19.75;9.32;;;;;;;;;;5018694;28;20076;-74
2022/02/19 00:42:05;;;;;;;22.17;11.85;;;;;;;;;;5023806;28;20026;-75
2022/02/19 00:44:33;;;;;;;15.50;7.80;;;;;;;;;;5015416;28;20085;-75
2022/02/19 00:47:00;;;;;;;18.58;9.15;;;;;;;;;;4998854;28;20046;-75
2022/02/19 00:49:27;;;;;;;11.50;4.95;;;;;;;;;;5017587;28;20033;-75
2022/02/19 00:51:54;;;;;;;11.85;4.57;;;;;;;;;;5018657;28;20029;-75
2022/02/19 00:54:22;;;;;;;10.05;4.38;;;;;;;;;;5021363;28;20026;-75
2022/02/19 00:56:48;;;;;;;6.57;3.97;;;;;;;;;;4997353;28;20030;-76
2022/02/19 00:59:14;;;;;;;8.10;3.67;;;;;;;;;;5005633;28;20037;-75
2022/02/19 01:01:40;;;;;;;6.50;3.60;;;;;;;;;;5024043;28;20029;-76
2022/02/19 01:04:07;;;;;;;8.00;3.88;;;;;;;;;;5017767;28;20412;-75
2022/02/19 01:06:33;;;;;;;8.00;4.05;;;;;;;;;;5016263;28;20022;-77
2022/02/19 01:08:59;;;;;;;8.43;4.50;;;;;;;;;;5017336;28;20041;-76
2022/02/19 01:11:25;;;;;;;10.70;5.43;;;;;;;;;;5016919;28;20026;-75
2022/02/19 01:13:51;;;;;;;11.60;5.45;;;;;;;;;;5016956;28;20033;-76
2022/02/19 01:16:18;;;;;;;12.73;5.57;;;;;;;;;;5016554;28;20098;-75
2022/02/19 01:18:44;;;;;;;10.15;5.93;;;;;;;;;;5016799;28;20037;-75
2022/02/19 01:21:10;;;;;;;10.07;4.65;;;;;;;;;;5016258;28;20478;-76
2022/02/19 01:23:37;;;;;;;10.52;4.85;;;;;;;;;;5012583;28;20033;-75
2022/02/19 01:26:03;;;;;;;7.85;3.60;;;;;;;;;;5002690;28;20109;-76
2022/02/19 01:28:34;;;;;;;9.75;4.18;;;;;;;;;;4981058;28;20046;-75
2022/02/19 01:31:00;;;;;;;7.07;3.55;;;;;;;;;;4982217;28;20018;-75
2022/02/19 01:33:26;;;;;;;5.32;3.00;;;;;;;;;;4997318;28;20057;-76
2022/02/19 01:35:53;;;;;;;5.28;2.90;;;;;;;;;;5004112;28;20379;-76
2022/02/19 01:38:19;;;;;;;7.70;3.50;;;;;;;;;;4979452;28;20100;-75
2022/02/19 01:40:45;;;;;;;4.97;3.00;;;;;;;;;;4997037;28;20038;-76
2022/02/19 01:43:11;;;;;;;5.93;3.28;;;;;;;;;;5000434;28;20026;-76
2022/02/19 01:45:38;;;;;;;8.48;4.25;;;;;;;;;;4999160;28;20097;-75
2022/02/19 01:48:05;;;;;;;9.68;4.47;;;;;;;;;;4998149;28;20034;-76
2022/02/19 01:50:31;;;;;;;8.70;4.25;;;;;;;;;;4998841;28;20034;-74
2022/02/19 01:52:57;;;;;;;10.75;5.10;;;;;;;;;;5001034;28;20077;-76
2022/02/19 01:55:23;;;;;;;7.95;4.25;;;;;;;;;;4981404;28;20062;-76
2022/02/19 01:57:49;;;;;;;9.20;4.53;;;;;;;;;;4981002;28;20133;-77
2022/02/19 02:00:15;;;;;;;12.77;4.78;;;;;;;;;;4997502;28;20026;-76
2022/02/19 02:02:42;;;;;;;10.20;4.20;;;;;;;;;;4995992;28;20043;-75
2022/02/19 02:05:08;;;;;;;8.32;4.30;;;;;;;;;;4996791;28;20026;-76
2022/02/19 02:07:35;;;;;;;7.93;4.15;;;;;;;;;;5002373;28;20030;-75
2022/02/19 02:10:01;;;;;;;6.80;4.00;;;;;;;;;;4997675;28;20105;-76
2022/02/19 02:12:27;;;;;;;9.50;4.95;;;;;;;;;;4999485;28;20026;-75
2022/02/19 02:14:53;;;;;;;8.60;4.05;;;;;;;;;;4997557;28;20038;-76
2022/02/19 02:17:19;;;;;;;7.00;3.75;;;;;;;;;;4996336;28;20022;-75
2022/02/19 02:19:45;;;;;;;7.22;3.47;;;;;;;;;;4994886;28;20109;-76
2022/02/19 02:22:14;;;;;;;6.57;3.60;;;;;;;;;;4996923;28;20030;-74
2022/02/19 02:24:40;;;;;;;5.35;3.20;;;;;;;;;;4996913;28;20034;-75
2022/02/19 02:27:08;;;;;;;5.72;3.03;;;;;;;;;;5012096;28;20057;-76
2022/02/19 02:29:45;;;;;;;6.07;3.20;;;;;;;;;;5016018;28;20025;-76
2022/02/19 02:32:11;;;;;;;5.75;3.00;;;;;;;;;;5016222;28;20040;-77
2022/02/19 02:34:47;;;;;;;7.22;3.15;;;;;;;;;;5017023;28;20033;-76
2022/02/19 02:37:13;;;;;;;7.00;3.60;;;;;;;;;;5021975;28;20026;-76
2022/02/19 02:39:40;;;;;;;8.13;3.97;;;;;;;;;;5016340;28;20034;-75
2022/02/19 02:42:08;;;;;;;8.10;3.80;;;;;;;;;;5013672;28;20050;-76
2022/02/19 02:44:38;;;;;;;8.43;3.90;;;;;;;;;;5023976;28;20030;-76
2022/02/19 02:47:04;;;;;;;6.30;3.65;;;;;;;;;;5001784;28;20121;-76
2022/02/19 02:49:30;;;;;;;13.77;7.40;;;;;;;;;;5019860;28;20028;-76
2022/02/19 02:51:58;;;;;;;16.35;8.65;;;;;;;;;;4988214;28;20046;-76
2022/02/19 02:54:24;;;;;;;11.20;6.00;;;;;;;;;;4998546;28;20376;-75
2022/02/19 02:56:50;;;;;;;9.70;4.20;;;;;;;;;;5013808;28;20107;-75
2022/02/19 02:59:16;;;;;;;5.97;3.75;;;;;;;;;;5000729;28;20093;-75
2022/02/19 03:01:42;;;;;;;9.45;4.25;;;;;;;;;;5011154;28;20026;-75
2022/02/19 03:04:08;;;;;;;7.88;4.30;;;;;;;;;;5014467;28;20518;-76
2022/02/19 03:06:34;;;;;;;8.43;4.32;;;;;;;;;;5000470;28;20037;-75
2022/02/19 03:09:00;;;;;;;6.60;3.80;;;;;;;;;;5016401;28;20030;-75
2022/02/19 03:11:26;;;;;;;11.25;4.97;;;;;;;;;;5015618;28;20032;-74
2022/02/19 03:13:53;;;;;;;6.88;4.03;;;;;;;;;;5015931;28;20411;-76
2022/02/19 03:16:20;;;;;;;8.38;3.97;;;;;;;;;;5015087;28;20117;-75
2022/02/19 03:18:46;;;;;;;7.20;4.18;;;;;;;;;;5015688;28;20029;-75
2022/02/19 03:21:12;;;;;;;7.65;4.10;;;;;;;;;;5015229;28;20509;-75
2022/02/19 03:23:38;;;;;;;10.07;4.20;;;;;;;;;;5020314;28;20395;-78
2022/02/19 03:26:07;;;;;;;8.18;3.97;;;;;;;;;;5015793;28;20034;-75
2022/02/19 03:28:36;;;;;;;17.15;8.05;;;;;;;;;;5020836;28;20034;-77
2022/02/19 03:31:02;;;;;;;31.42;14.35;;;;;;;;;;5014617;28;20014;-75
2022/02/19 03:33:28;;;;;;;41.75;21.77;;;;;;;;;;5020160;28;20026;-76
2022/02/19 03:35:54;;;;;;;14.73;7.43;;;;;;;;;;5014027;28;20096;-75
2022/02/19 03:38:21;;;;;;;12.30;5.10;;;;;;;;;;5013988;28;20038;-76
2022/02/19 03:40:48;;;;;;;6.25;3.63;;;;;;;;;;5021462;28;20390;-75
2022/02/19 03:43:16;;;;;;;8.27;3.97;;;;;;;;;;5001509;28;20026;-76
2022/02/19 03:45:43;;;;;;;7.72;3.85;;;;;;;;;;5015227;28;20108;-75
2022/02/19 03:48:12;;;;;;;7.35;3.78;;;;;;;;;;5014281;28;20049;-75
2022/02/19 03:50:38;;;;;;;12.10;6.50;;;;;;;;;;5015763;28;20386;-75
2022/02/19 03:53:05;;;;;;;9.52;4.95;;;;;;;;;;5017408;28;20033;-75
2022/02/19 03:55:31;;;;;;;18.35;8.90;;;;;;;;;;5014093;28;20026;-76
2022/02/19 03:57:57;;;;;;;16.45;9.57;;;;;;;;;;5018815;28;20551;-76
2022/02/19 04:00:24;;;;;;;28.38;17.98;;;;;;;;;;5021855;28;20033;-75
2022/02/19 04:02:51;;;;;;;17.88;10.07;;;;;;;;;;5013434;28;20432;-76
2022/02/19 04:05:17;;;;;;;9.20;5.18;;;;;;;;;;4999212;28;20023;-75
2022/02/19 04:07:45;;;;;;;11.50;6.70;;;;;;;;;;5019945;28;20030;-75
2022/02/19 04:10:11;;;;;;;8.68;5.20;;;;;;;;;;5019793;28;20085;-75
2022/02/19 04:12:38;;;;;;;9.82;4.63;;;;;;;;;;5018268;28;20042;-76
2022/02/19 04:15:04;;;;;;;9.32;4.22;;;;;;;;;;5020497;28;20098;-75
2022/02/19 04:17:30;;;;;;;7.15;3.58;;;;;;;;;;5017785;28;20022;-75
2022/02/19 04:19:56;;;;;;;8.43;3.75;;;;;;;;;;5020954;28;20033;-75
2022/02/19 04:22:23;;;;;;;4.97;3.30;;;;;;;;;;5002031;28;20032;-75
2022/02/19 04:24:50;;;;;;;6.97;3.63;;;;;;;;;;5008099;28;20027;-75
2022/02/19 04:27:17;;;;;;;11.52;4.30;;;;;;;;;;4997065;28;20109;-75
2022/02/19 04:29:43;;;;;;;9.45;4.13;;;;;;;;;;4998915;28;20034;-75
2022/02/19 04:32:10;;;;;;;7.32;4.40;;;;;;;;;;4998693;28;20030;-76
2022/02/19 04:34:36;;;;;;;8.93;3.97;;;;;;;;;;4997820;28;20365;-75
2022/02/19 04:37:03;;;;;;;7.38;3.78;;;;;;;;;;4997064;28;20030;-74
2022/02/19 04:39:29;;;;;;;6.50;3.78;;;;;;;;;;4996628;28;20129;-75
2022/02/19 04:41:55;;;;;;;6.10;3.90;;;;;;;;;;4998292;28;20106;-75
2022/02/19 04:44:23;;;;;;;5.97;3.60;;;;;;;;;;5000129;28;20042;-75
2022/02/19 04:46:51;;;;;;;9.45;4.18;;;;;;;;;;4987307;28;20023;-75
2022/02/19 04:49:17;;;;;;;7.57;4.35;;;;;;;;;;4981082;28;20093;-76
2022/02/19 04:51:43;;;;;;;143.52;84.00;;;;;;;;;;5003134;28;20030;-76
2022/02/19 04:54:10;;;;;;;57.45;36.70;;;;;;;;;;5006979;28;20041;-76
2022/02/19 04:56:36;;;;;;;20.45;12.27;;;;;;;;;;4998232;28;20038;-76
2022/02/19 04:59:02;;;;;;;8.85;5.30;;;;;;;;;;4997625;28;20046;-75
2022/02/19 05:01:28;;;;;;;12.25;5.40;;;;;;;;;;4998749;28;20018;-75
2022/02/19 05:03:56;;;;;;;8.63;4.88;;;;;;;;;;4998121;28;20041;-75
2022/02/19 05:06:25;;;;;;;11.90;5.25;;;;;;;;;;4999503;28;20044;-75
2022/02/19 05:08:53;;;;;;;10.80;5.22;;;;;;;;;;4986466;28;20480;-76
2022/02/19 05:11:19;;;;;;;7.43;4.57;;;;;;;;;;4979165;28;20853;-75
2022/02/19 05:13:46;;;;;;;7.10;4.60;;;;;;;;;;5001445;28;20379;-75
2022/02/19 05:16:12;;;;;;;22.10;4.75;;;;;;;;;;4999004;28;20027;-75
2022/02/19 05:18:38;;;;;;;9.65;4.93;;;;;;;;;;5003599;28;20038;-76
2022/02/19 05:21:04;;;;;;;10.77;5.68;;;;;;;;;;5000300;28;20019;-75
2022/02/19 05:23:32;;;;;;;11.68;5.97;;;;;;;;;;5001787;28;20026;-75
2022/02/19 05:26:00;;;;;;;14.27;5.90;;;;;;;;;;4997336;28;20031;-75
2022/02/19 05:28:27;;;;;;;10.98;5.60;;;;;;;;;;4996357;28;20141;-75
2022/02/19 05:30:53;;;;;;;11.30;5.47;;;;;;;;;;4997182;28;20558;-75
2022/02/19 05:33:20;;;;;;;10.95;6.03;;;;;;;;;;4995994;28;20034;-74
2022/02/19 05:35:46;;;;;;;10.65;5.72;;;;;;;;;;4997001;28;20026;-75
2022/02/19 05:38:17;;;;;;;12.82;7.18;;;;;;;;;;4997814;28;20448;-75
2022/02/19 05:40:54;;;;;;;15.48;8.07;;;;;;;;;;4998825;28;20031;-74
2022/02/19 05:43:20;;;;;;;14.55;7.13;;;;;;;;;;4996243;28;20052;-75
2022/02/19 05:45:48;;;;;;;15.15;7.68;;;;;;;;;;4996391;28;20022;-74
2022/02/19 05:48:14;;;;;;;23.73;9.00;;;;;;;;;;4995649;28;20507;-75
2022/02/19 05:50:40;;;;;;;22.85;13.68;;;;;;;;;;4995253;28;20038;-75
2022/02/19 05:53:06;;;;;;;25.38;11.07;;;;;;;;;;4995746;28;20548;-74
2022/02/19 05:55:32;;;;;;;21.48;11.50;;;;;;;;;;4996381;28;20068;-76
2022/02/19 05:57:59;;;;;;;14.05;8.30;;;;;;;;;;4996014;28;20030;-75
2022/02/19 06:00:25;;;;;;;13.82;7.18;;;;;;;;;;4996032;28;20031;-75
2022/02/19 06:02:54;;;;;;;12.55;7.57;;;;;;;;;;4993304;28;20030;-78
2022/02/19 06:05:20;;;;;;;16.63;7.43;;;;;;;;;;4996455;28;20048;-75
2022/02/19 06:07:46;;;;;;;17.17;6.32;;;;;;;;;;4995431;28;20053;-75
2022/02/19 06:10:14;;;;;;;12.57;6.18;;;;;;;;;;4995902;28;20085;-75
2022/02/19 06:12:40;;;;;;;12.00;6.90;;;;;;;;;;4995844;28;20077;-76
2022/02/19 06:15:07;;;;;;;14.73;6.68;;;;;;;;;;4996110;28;20034;-76
2022/02/19 06:17:33;;;;;;;18.52;6.90;;;;;;;;;;4994834;28;20050;-75
2022/02/19 06:20:00;;;;;;;15.73;6.60;;;;;;;;;;4975236;28;20030;-74
2022/02/19 06:22:26;;;;;;;16.58;7.00;;;;;;;;;;4994010;28;20049;-75
2022/02/19 06:24:52;;;;;;;21.27;8.70;;;;;;;;;;4993031;28;20038;-75
2022/02/19 06:27:20;;;;;;;13.05;7.70;;;;;;;;;;5005811;28;20093;-75
2022/02/19 06:29:48;;;;;;;14.38;7.22;;;;;;;;;;5016127;28;20084;-79
2022/02/19 06:32:14;;;;;;;15.00;7.93;;;;;;;;;;5019420;28;20021;-75
2022/02/19 06:34:41;;;;;;;22.33;12.02;;;;;;;;;;4997125;28;20399;-74
2022/02/19 06:37:07;;;;;;;25.70;10.00;;;;;;;;;;5013997;28;20022;-72
2022/02/19 06:39:33;;;;;;;15.73;7.90;;;;;;;;;;5015160;28;20041;-74
2022/02/19 06:42:02;;;;;;;17.48;8.40;;;;;;;;;;5015954;28;20547;-76
2022/02/19 06:44:28;;;;;;;16.80;8.20;;;;;;;;;;5019012;28;20072;-77
2022/02/19 06:46:54;;;;;;;16.58;8.48;;;;;;;;;;5022199;28;20110;-75
2022/02/19 06:49:25;;;;;;;18.27;8.55;;;;;;;;;;5031341;28;20025;-79
2022/02/19 06:51:52;;;;;;;18.10;7.95;;;;;;;;;;4998469;28;20046;-76
2022/02/19 06:54:18;;;;;;;13.85;7.40;;;;;;;;;;5028670;28;20013;-78
2022/02/19 06:56:44;;;;;;;15.90;8.27;;;;;;;;;;5026393;28;20026;-76
2022/02/19 06:59:19;;;;;;;15.45;8.57;;;;;;;;;;5012130;28;20045;-75
2022/02/19 07:01:45;;;;;;;20.33;8.10;;;;;;;;;;4965507;28;20038;-76
2022/02/19 07:04:15;;;;;;;15.25;7.60;;;;;;;;;;4977829;28;20129;-81
2022/02/19 07:06:41;;;;;;;16.60;7.10;;;;;;;;;;5007474;28;20030;-73
2022/02/19 07:09:07;;;;;;;22.73;7.93;;;;;;;;;;5024135;28;20025;-81
2022/02/19 07:11:33;;;;;;;15.63;6.63;;;;;;;;;;5012464;28;20141;-76
2022/02/19 07:13:59;;;;;;;11.98;6.93;;;;;;;;;;5011523;28;20037;-77
2022/02/19 07:16:25;;;;;;;14.75;8.10;;;;;;;;;;5012373;28;20080;-76
2022/02/19 07:18:51;;;;;;;25.73;9.20;;;;;;;;;;5011535;28;20037;-78
2022/02/19 07:21:17;;;;;;;23.85;11.68;;;;;;;;;;5011929;28;20024;-73
2022/02/19 07:23:43;;;;;;;18.90;10.75;;;;;;;;;;5011817;28;20022;-73
2022/02/19 07:26:10;;;;;;;13.43;6.93;;;;;;;;;;5012204;28;20129;-76
2022/02/19 07:28:36;;;;;;;11.60;5.72;;;;;;;;;;4992987;28;20030;-73
2022/02/19 07:31:02;;;;;;;8.95;5.38;;;;;;;;;;5011267;28;20018;-78
2022/02/19 07:33:28;;;;;;;14.15;5.30;;;;;;;;;;5010517;28;20025;-72
2022/02/19 07:35:55;;;;;;;11.70;5.32;;;;;;;;;;5012140;28;20042;-75
2022/02/19 07:38:21;;;;;;;12.57;5.30;;;;;;;;;;5011495;28;20030;-81
2022/02/19 07:40:47;;;;;;;13.02;5.72;;;;;;;;;;5011479;28;20030;-74
2022/02/19 07:43:13;;;;;;;10.65;5.72;;;;;;;;;;5011679;28;20034;-80
2022/02/19 07:45:39;;;;;;;13.32;5.88;;;;;;;;;;5011365;28;20057;-76
2022/02/19 07:48:05;;;;;;;11.63;5.13;;;;;;;;;;5011639;28;20053;-87
2022/02/19 07:59:02;;;;;;;12.77;5.03;;;;;;;;;;5025540;28;20145;-78
2022/02/19 08:01:28;;;;;;;10.25;5.57;;;;;;;;;;5021038;28;20022;-77
2022/02/19 08:03:54;;;;;;;9.45;4.70;;;;;;;;;;4995848;28;20404;-79
2022/02/19 08:06:21;;;;;;;9.93;4.85;;;;;;;;;;5011357;28;20029;-75
2022/02/19 08:08:47;;;;;;;10.30;4.32;;;;;;;;;;5011144;28;20030;-72
2022/02/19 08:11:14;;;;;;;10.88;4.30;;;;;;;;;;5010605;28;20448;-71
2022/02/19 08:13:40;;;;;;;13.00;4.50;;;;;;;;;;5011553;28;20029;-72
2022/02/19 08:16:06;;;;;;;8.40;4.80;;;;;;;;;;5009547;28;20147;-73
2022/02/19 08:18:32;;;;;;;9.95;4.63;;;;;;;;;;5000956;28;20041;-73
2022/02/19 08:20:58;;;;;;;9.68;5.47;;;;;;;;;;5011680;28;20033;-72
2022/02/19 08:23:24;;;;;;;8.43;4.32;;;;;;;;;;5011816;28;20022;-74
2022/02/19 08:25:50;;;;;;;9.73;4.55;;;;;;;;;;5011402;28;20077;-77
2022/02/19 08:28:17;;;;;;;10.27;4.70;;;;;;;;;;5009531;28;20041;-77
2022/02/19 08:30:44;;;;;;;8.07;4.63;;;;;;;;;;5011131;28;20025;-72
2022/02/19 08:33:10;;;;;;;10.02;5.00;;;;;;;;;;5011716;28;20498;-74
2022/02/19 08:35:37;;;;;;;8.18;5.00;;;;;;;;;;5011961;28;20105;-74
2022/02/19 08:38:04;;;;;;;10.10;4.93;;;;;;;;;;5009839;28;20046;-74
2022/02/19 08:40:30;;;;;;;10.52;5.03;;;;;;;;;;5010804;28;20022;-83
2022/02/19 08:43:14;;;;;;;10.02;5.38;;;;;;;;;;4995106;28;20065;-77
2022/02/19 08:45:40;;;;;;;9.10;4.20;;;;;;;;;;5001646;28;20030;-74
2022/02/19 08:48:06;;;;;;;13.00;5.40;;;;;;;;;;5014934;28;20298;-73
2022/02/19 08:50:34;;;;;;;9.77;4.50;;;;;;;;;;5014340;28;20026;-72
2022/02/19 08:53:00;;;;;;;15.05;6.20;;;;;;;;;;5015064;28;20022;-71
2022/02/19 08:55:26;;;;;;;9.90;5.70;;;;;;;;;;5016894;28;20030;-73
2022/02/19 08:57:53;;;;;;;11.20;5.22;;;;;;;;;;5016179;28;20038;-73
2022/02/19 09:00:19;;;;;;;14.88;9.30;;;;;;;;;;5016856;28;20101;-74
2022/02/19 09:02:45;;;;;;;14.60;7.45;;;;;;;;;;5014815;28;20400;-74
2022/02/19 09:05:13;;;;;;;14.98;7.75;;;;;;;;;;5001033;28;20373;-73
2022/02/19 09:07:39;;;;;;;11.07;6.82;;;;;;;;;;5018122;28;20026;-73
2022/02/19 09:10:06;;;;;;;11.07;6.93;;;;;;;;;;5016778;28;20041;-73
2022/02/19 09:12:32;;;;;;;16.50;8.07;;;;;;;;;;5016864;28;20022;-74
2022/02/19 09:14:58;;;;;;;19.27;10.88;;;;;;;;;;5018895;28;20080;-75
2022/02/19 09:17:25;;;;;;;15.00;7.80;;;;;;;;;;5024585;28;20028;-77
2022/02/19 09:19:51;;;;;;;26.33;13.70;;;;;;;;;;5016774;28;20066;-74
2022/02/19 09:22:18;;;;;;;20.10;11.90;;;;;;;;;;5015480;28;20049;-75
2022/02/19 09:24:44;;;;;;;18.30;8.57;;;;;;;;;;5014699;28;20101;-73
2022/02/19 09:27:10;;;;;;;21.08;9.93;;;;;;;;;;5014625;28;20038;-73
2022/02/19 09:29:36;;;;;;;24.65;10.77;;;;;;;;;;5014144;28;20036;-74
2022/02/19 09:32:03;;;;;;;71.85;30.17;;;;;;;;;;5014988;28;20026;-72
2022/02/19 09:34:29;;;;;;;22.70;9.80;;;;;;;;;;5015113;28;20026;-76
2022/02/19 09:36:55;;;;;;;22.85;9.60;;;;;;;;;;5012753;28;20029;-74
2022/02/19 09:39:21;;;;;;;47.47;18.13;;;;;;;;;;5015479;28;20038;-74
2022/02/19 09:41:48;;;;;;;22.10;9.70;;;;;;;;;;5015764;28;20014;-73
2022/02/19 09:44:14;;;;;;;18.17;9.63;;;;;;;;;;5016125;28;20033;-71
2022/02/19 09:46:41;;;;;;;16.25;8.07;;;;;;;;;;5002793;28;20030;-74
2022/02/19 09:49:08;;;;;;;13.13;7.80;;;;;;;;;;5011173;28;20029;-78
2022/02/19 09:51:34;;;;;;;14.55;8.38;;;;;;;;;;5016041;28;20506;-74
2022/02/19 09:54:00;;;;;;;9.40;5.38;;;;;;;;;;5013827;28;20382;-73
2022/02/19 09:56:28;;;;;;;13.90;7.35;;;;;;;;;;5014080;28;20032;-73
2022/02/19 09:59:00;;;;;;;12.85;6.10;;;;;;;;;;5014386;28;20042;-74
2022/02/19 10:01:27;;;;;;;15.90;6.97;;;;;;;;;;5014162;28;20025;-74
2022/02/19 10:03:57;;;;;;;18.35;8.85;;;;;;;;;;5014563;28;20025;-75
2022/02/19 10:06:28;;;;;;;19.20;9.52;;;;;;;;;;5014115;28;20438;-75
2022/02/19 10:09:10;;;;;;;18.48;6.90;;;;;;;;;;5014027;28;20034;-76
2022/02/19 10:11:36;;;;;;;13.27;6.05;;;;;;;;;;5012812;28;20058;-73
2022/02/19 10:14:21;;;;;;;9.95;5.63;;;;;;;;;;5012920;28;20456;-74
2022/02/19 10:17:03;;;;;;;17.48;7.22;;;;;;;;;;5013750;28;20040;-74
2022/02/19 10:19:29;;;;;;;12.00;6.45;;;;;;;;;;5013241;28;20040;-74
2022/02/19 10:22:14;;;;;;;18.73;8.15;;;;;;;;;;5013345;28;20026;-75
2022/02/19 10:24:41;;;;;;;16.15;7.10;;;;;;;;;;5024155;28;20026;-73
2022/02/19 10:27:07;;;;;;;17.38;8.60;;;;;;;;;;5013351;28;20034;-73
2022/02/19 10:29:47;;;;;;;29.00;12.27;;;;;;;;;;5013797;28;20519;-74
2022/02/19 10:32:13;;;;;;;17.27;7.82;;;;;;;;;;5012928;28;20018;-74
2022/02/19 10:34:53;;;;;;;17.67;8.90;;;;;;;;;;5013149;28;20029;-74
2022/02/19 10:37:23;;;;;;;16.48;7.63;;;;;;;;;;5013784;28;20034;-73
2022/02/19 10:39:49;;;;;;;16.55;8.43;;;;;;;;;;5015857;28;20050;-75
2022/02/19 10:42:15;;;;;;;15.90;7.60;;;;;;;;;;5015419;28;20025;-72
2022/02/19 10:44:41;;;;;;;18.05;8.13;;;;;;;;;;5012879;28;20033;-74
2022/02/19 10:47:21;;;;;;;28.13;13.07;;;;;;;;;;5003942;28;20032;-74
2022/02/19 10:50:22;;;;;;;15.35;7.70;;;;;;;;;;5007955;28;20017;-73
2022/02/19 10:52:52;;;;;;;16.05;8.27;;;;;;;;;;4956731;28;20473;-74
2022/02/19 10:55:23;;;;;;;23.35;9.60;;;;;;;;;;4952457;29;20051;-72
2022/02/19 10:57:56;;;;;;;15.45;7.63;;;;;;;;;;4948662;28;20094;-76
2022/02/19 11:00:22;;;;;;;;;;;;;;;;;;4962033;28;20565;-73
2022/02/19 11:02:50;;;;;;;15.45;9.15;;;;;;;;;;4953570;29;19993;-74
2022/02/19 11:05:16;;;;;;;17.35;10.27;;;;;;;;;;4954194;28;20038;-78
2022/02/19 11:08:03;;;;;;;19.48;8.57;;;;;;;;;;4957743;29;20039;-76
2022/02/19 11:10:33;;;;;;;21.17;8.27;;;;;;;;;;4954081;28;20035;-77
2022/02/19 11:13:03;;;;;;;20.05;8.60;;;;;;;;;;4953010;29;20047;-75
2022/02/19 11:15:32;;;;;;;17.80;8.68;;;;;;;;;;4952548;29;20058;-75
2022/02/19 11:17:59;;;;;;;16.65;8.63;;;;;;;;;;4946978;29;20047;-74
2022/02/19 11:20:25;;;;;;;12.93;7.78;;;;;;;;;;4954061;29;20070;-76
2022/02/19 11:22:53;;;;;;;19.77;8.68;;;;;;;;;;4951445;29;20050;-75
2022/02/19 11:25:20;;;;;;;14.82;7.95;;;;;;;;;;4937949;28;20493;-76
2022/02/19 11:27:53;;;;;;;14.90;7.82;;;;;;;;;;5013253;28;20045;-75
2022/02/19 11:30:20;;;;;;;17.60;8.05;;;;;;;;;;5012164;28;20100;-76
2022/02/19 11:32:50;;;;;;;13.77;8.00;;;;;;;;;;5011853;28;20062;-71
2022/02/19 11:35:34;;;;;;;13.57;7.07;;;;;;;;;;5013562;28;20031;-80
2022/02/19 11:38:00;;;;;;;11.48;6.95;;;;;;;;;;5015079;28;20045;-77
2022/02/19 11:40:44;;;;;;;13.68;6.03;;;;;;;;;;5019123;28;20038;-73
2022/02/19 11:43:30;;;;;;;15.52;7.22;;;;;;;;;;5020898;28;20022;-73
2022/02/19 11:45:56;;;;;;;16.75;7.30;;;;;;;;;;5026179;28;20038;-75
2022/02/19 11:48:22;;;;;;;14.82;6.45;;;;;;;;;;5023585;28;20488;-76
2022/02/19 11:50:48;;;;;;;14.90;7.28;;;;;;;;;;5018720;28;20053;-75
2022/02/19 11:53:21;;;;;;;10.15;6.05;;;;;;;;;;5013733;28;20026;-76
2022/02/19 11:55:57;;;;;;;17.70;6.75;;;;;;;;;;5016984;28;20467;-77
2022/02/19 11:58:26;;;;;;;10.35;6.10;;;;;;;;;;5025082;28;20006;-78
2022/02/19 12:01:01;;;;;;;9.30;5.82;;;;;;;;;;5010894;28;20046;-76
2022/02/19 12:03:27;;;;;;;9.68;5.10;;;;;;;;;;5018376;28;20029;-75
2022/02/19 12:06:14;;;;;;;10.05;4.72;;;;;;;;;;5004346;28;20025;-77
2022/02/19 12:08:52;;;;;;;9.05;4.40;;;;;;;;;;5024385;28;20026;-76
2022/02/19 12:11:20;;;;;;;10.20;4.88;;;;;;;;;;5029430;28;20045;-76
2022/02/19 12:13:49;;;;;;;7.03;4.50;;;;;;;;;;4999933;28;20022;-75
2022/02/19 12:16:39;;;;;;;9.32;4.55;;;;;;;;;;5020236;28;20034;-78
2022/02/19 12:19:44;;;;;;;8.88;4.43;;;;;;;;;;5023967;28;20077;-77
2022/02/19 12:22:49;;;;;;;8.57;4.47;;;;;;;;;;5031413;28;20029;-79
2022/02/19 12:25:40;;;;;;;13.15;4.07;;;;;;;;;;4910673;29;20068;-81
2022/02/19 12:28:27;;;;;;;8.25;3.90;;;;;;;;;;4841728;29;20053;-77
2022/02/19 12:31:13;;;;;;;8.30;4.00;;;;;;;;;;4826568;29;20026;-78
2022/02/19 12:34:28;;;;;;;10.98;4.50;;;;;;;;;;4842365;29;20030;-78
2022/02/19 12:37:09;;;;;;;13.85;5.32;;;;;;;;;;4896377;28;20049;-79
2022/02/19 12:39:46;;;;;;;8.23;4.65;;;;;;;;;;5028843;28;20102;-76
2022/02/19 12:42:19;;;;;;;8.52;4.70;;;;;;;;;;5027992;28;20062;-76
2022/02/19 12:44:48;;;;;;;10.18;5.57;;;;;;;;;;5021709;28;20434;-74
2022/02/19 12:47:18;;;;;;;12.48;4.95;;;;;;;;;;5011629;28;20022;-71
2022/02/19 12:49:44;;;;;;;8.48;4.57;;;;;;;;;;5018625;28;20034;-74
2022/02/19 12:52:11;;;;;;;14.00;5.57;;;;;;;;;;5007211;28;20034;-74
2022/02/19 12:54:38;;;;;;;11.40;5.53;;;;;;;;;;5022416;28;20030;-75
2022/02/19 12:57:05;;;;;;;20.63;5.85;;;;;;;;;;5025229;28;20022;-74
2022/02/19 12:59:31;;;;;;;10.98;4.70;;;;;;;;;;5023604;28;20077;-76
2022/02/19 13:02:01;;;;;;;11.52;4.55;;;;;;;;;;5003323;28;20018;-74
2022/02/19 13:04:28;;;;;;;9.27;5.15;;;;;;;;;;5014948;28;20097;-74
2022/02/19 13:06:54;;;;;;;10.85;4.40;;;;;;;;;;5021073;28;20026;-78
2022/02/19 13:09:21;;;;;;;9.85;4.32;;;;;;;;;;5020551;28;20022;-79
2022/02/19 13:11:48;;;;;;;11.05;5.57;;;;;;;;;;5021312;28;20029;-76
2022/02/19 13:14:14;;;;;;;9.55;5.18;;;;;;;;;;5020490;28;20379;-73
2022/02/19 13:16:40;;;;;;;7.95;4.05;;;;;;;;;;5009579;28;20026;-76
2022/02/19 13:19:07;;;;;;;8.93;3.85;;;;;;;;;;5021940;28;20037;-76
2022/02/19 13:21:36;;;;;;;10.73;4.80;;;;;;;;;;5026898;28;20110;-79
2022/02/19 13:24:15;;;;;;;10.38;4.97;;;;;;;;;;5006326;28;20037;-76
2022/02/19 13:26:41;;;;;;;7.85;3.97;;;;;;;;;;5019426;28;20038;-73
2022/02/19 13:29:07;;;;;;;13.82;4.70;;;;;;;;;;4997897;28;20037;-75
2022/02/19 13:31:35;;;;;;;11.15;5.00;;;;;;;;;;5015991;28;20075;-73
2022/02/19 13:34:03;;;;;;;13.32;7.15;;;;;;;;;;5014890;28;20051;-73
2022/02/19 13:36:33;;;;;;;13.57;5.97;;;;;;;;;;5019049;28;20063;-75
2022/02/19 13:39:13;;;;;;;7.32;3.78;;;;;;;;;;5024761;28;20053;-78
2022/02/19 13:41:56;;;;;;;8.50;4.05;;;;;;;;;;5015637;28;20052;-71
2022/02/19 13:44:22;;;;;;;10.50;4.75;;;;;;;;;;5014685;28;20024;-75
2022/02/19 13:46:49;;;;;;;8.40;3.60;;;;;;;;;;4999138;28;20038;-74
2022/02/19 13:49:17;;;;;;;6.90;3.30;;;;;;;;;;5014895;28;20465;-73
2022/02/19 13:51:44;;;;;;;6.82;3.03;;;;;;;;;;5018019;28;20457;-76
2022/02/19 13:54:14;;;;;;;13.27;4.75;;;;;;;;;;5016594;28;20044;-73
2022/02/19 13:56:41;;;;;;;16.13;5.25;;;;;;;;;;5023363;28;20034;-76
2022/02/19 13:59:07;;;;;;;4.90;3.10;;;;;;;;;;5017502;28;20054;-76
2022/02/19 14:01:41;;;;;;;6.50;2.85;;;;;;;;;;5015753;28;20033;-76
2022/02/19 14:04:07;;;;;;;6.63;3.30;;;;;;;;;;5011974;28;20026;-75
2022/02/19 14:06:39;;;;;;;9.80;4.35;;;;;;;;;;5014531;28;20392;-75
2022/02/19 14:09:14;;;;;;;7.55;3.92;;;;;;;;;;5015332;28;20056;-75
2022/02/19 14:11:47;;;;;;;7.45;3.75;;;;;;;;;;5014429;28;20026;-75
2022/02/19 14:14:13;;;;;;;8.18;3.90;;;;;;;;;;5013813;28;20080;-76
2022/02/19 14:16:39;;;;;;;9.52;3.75;;;;;;;;;;5014852;28;20026;-76
2022/02/19 14:19:06;;;;;;;8.00;3.20;;;;;;;;;;5012832;28;20128;-76
2022/02/19 14:21:32;;;;;;;5.57;3.00;;;;;;;;;;5014030;28;20100;-76
2022/02/19 14:24:16;;;;;;;5.68;2.95;;;;;;;;;;5011573;28;20045;-73
2022/02/19 14:26:42;;;;;;;8.07;3.88;;;;;;;;;;5007374;28;20040;-75
2022/02/19 14:29:09;;;;;;;6.32;3.10;;;;;;;;;;4996468;28;20050;-75
2022/02/19 14:31:36;;;;;;;8.43;3.45;;;;;;;;;;5005229;28;20401;-76
2022/02/19 14:34:02;;;;;;;4.82;2.55;;;;;;;;;;5009029;28;20014;-77
2022/02/19 14:36:29;;;;;;;8.00;3.00;;;;;;;;;;5014371;28;20032;-75
2022/02/19 14:38:56;;;;;;;6.05;3.20;;;;;;;;;;5011695;28;20068;-73
2022/02/19 14:41:23;;;;;;;7.07;3.63;;;;;;;;;;4979625;28;20061;-74
2022/02/19 14:43:51;;;;;;;8.98;2.60;;;;;;;;;;5008377;28;20095;-74
2022/02/19 14:46:18;;;;;;;4.40;2.60;;;;;;;;;;5003866;28;20137;-75
2022/02/19 14:48:48;;;;;;;5.50;2.88;;;;;;;;;;5014747;28;20030;-74